Giberson, Indiana
Current Conditions -  °F | °C
As of 6:53 PM on Monday 22 Dec 2014 (Local Time) from KBMG Reporting Station
Light Rain Light Rain  
Wind Chill: 41°   Ceiling: 2100
Heat Index: 45°   Visibility: 10mi
Dew Point: 43°   Wind: 8mph
Humidity: 93%   Direction: 140°SE
Pressure: 29.7"   Gusts: NA
Location:  38.8737°N, 86.4563°W
Report Text: KBMG 222353Z 14007KT 10SM -RA BKN021 OVC060 07/06 A2970 RMK AO2 SLP059 P0002 60004 T00720061 10072 20056 56013
Loading
Personal Weather Stations






























Interactive Weather Map New forecast layout! Learn more

10-Day Weather Forecast

Advertisements
Track Severe Weather on mobile